WEY27B LPCS-LPCS

Flight info

Callsign WEY27B
Flight time 0h 3m
Altitude 1000
Route CCAIS
Aircraft C152/L-V/N

Departure

Time 2026-04-10 22:51
Airport Cascais Airport (LPCS)

Arrival

Time 2026-04-10 22:54
Airport Cascais Airport (LPCS)
Time Latitude Longitude Altitude Speed Heading
2026-04-10 22:41 38.72313 -9.35283 328 ft 0 kts 151°
2026-04-10 22:49 38.72322 -9.35341 328 ft 14 kts 272°
2026-04-10 22:49 38.72322 -9.35388 328 ft 0 kts 255°
2026-04-10 22:49 38.72282 -9.35429 328 ft 21 kts 159°
2026-04-10 22:50 38.72001 -9.35323 328 ft 53 kts 168°
2026-04-10 22:50 38.71838 -9.35277 328 ft 3 kts 264°
2026-04-10 22:50 38.71841 -9.35282 328 ft 0 kts 335°
2026-04-10 22:50 38.71977 -9.35329 328 ft 46 kts 345°
2026-04-10 22:51 38.72404 -9.35480 410 ft 66 kts 338°
2026-04-10 22:51 38.72779 -9.35580 650 ft 55 kts 346°
2026-04-10 22:51 38.73115 -9.35747 812 ft 58 kts 334°
2026-04-10 22:51 38.73510 -9.35871 941 ft 58 kts 336°
2026-04-10 22:52 38.73879 -9.36146 1024 ft 56 kts 319°
2026-04-10 22:52 38.74092 -9.36540 1115 ft 65 kts 254°
2026-04-10 22:52 38.73758 -9.37127 1115 ft 87 kts 233°
2026-04-10 22:52 38.73191 -9.37457 1129 ft 97 kts 178°
2026-04-10 22:53 38.72584 -9.37169 1086 ft 95 kts 161°
2026-04-10 22:53 38.71965 -9.36920 1026 ft 91 kts 164°
2026-04-10 22:53 38.71431 -9.36615 1049 ft 80 kts 161°
2026-04-10 22:53 38.71104 -9.36210 1140 ft 68 kts 68°
2026-04-10 22:54 38.71377 -9.35582 815 ft 92 kts 62°
2026-04-10 22:54 38.71849 -9.35266 430 ft 84 kts 341°
2026-04-10 22:54 38.72283 -9.35431 345 ft 51 kts 346°
2026-04-10 22:54 38.72552 -9.35534 328 ft 29 kts 346°
2026-04-10 22:55 38.72604 -9.35553 328 ft 0 kts 348°
2026-04-10 22:55 38.72601 -9.35564 328 ft 13 kts 181°
2026-04-10 22:55 38.72453 -9.35490 328 ft 35 kts 161°
2026-04-10 22:56 38.72375 -9.35406 328 ft 10 kts 53°
2026-04-10 22:56 38.72319 -9.35288 328 ft 18 kts 120°